createdAt,value
2023-01-05T00:01:07.144Z,4.43
2023-01-05T00:03:36.161Z,5.28
2023-01-05T00:06:08.294Z,5.40
2023-01-05T00:08:37.648Z,6.07
2023-01-05T00:11:24.524Z,5.95
2023-01-05T00:14:15.194Z,4.85
2023-01-05T00:17:00.731Z,6.43
2023-01-05T00:19:46.238Z,5.32
2023-01-05T00:22:32.134Z,5.22
2023-01-05T00:25:03.562Z,5.75
2023-01-05T00:27:37.340Z,5.13
2023-01-05T00:30:06.655Z,5.53
2023-01-05T00:32:34.526Z,5.72
2023-01-05T00:35:03.356Z,6.25
2023-01-05T00:37:35.034Z,5.85
2023-01-05T00:40:03.793Z,6.05
2023-01-05T00:42:31.627Z,4.32
2023-01-05T00:44:59.447Z,5.60
2023-01-05T00:47:27.445Z,5.50
2023-01-05T00:49:55.296Z,5.00
2023-01-05T00:52:23.267Z,5.13
2023-01-05T00:54:52.550Z,6.55
2023-01-05T00:57:20.315Z,4.35
2023-01-05T00:59:48.109Z,4.70
2023-01-05T01:02:16.322Z,4.10
2023-01-05T01:04:44.210Z,6.88
2023-01-05T01:07:12.195Z,5.15
2023-01-05T01:09:41.362Z,5.50
2023-01-05T01:12:10.657Z,4.90
2023-01-05T01:14:39.712Z,6.57
2023-01-05T01:17:07.932Z,4.82
2023-01-05T01:19:35.684Z,6.03
2023-01-05T01:22:03.446Z,6.95
2023-01-05T01:24:31.870Z,5.78
2023-01-05T01:26:59.735Z,5.70
2023-01-05T01:29:29.677Z,5.10
2023-01-05T01:31:57.523Z,7.28
2023-01-05T01:34:25.410Z,5.45
2023-01-05T01:36:55.866Z,5.15
2023-01-05T01:39:24.571Z,5.70
2023-01-05T01:41:52.294Z,5.35
2023-01-05T01:44:54.166Z,5.03
2023-01-05T01:47:28.158Z,5.80
2023-01-05T01:49:58.629Z,5.95
2023-01-05T01:52:28.863Z,5.35
2023-01-05T01:54:57.158Z,5.85
2023-01-05T01:57:27.937Z,6.00
2023-01-05T01:59:59.747Z,4.50
2023-01-05T02:02:29.304Z,6.40
2023-01-05T02:05:01.087Z,5.32
2023-01-05T02:07:33.736Z,5.10
2023-01-05T02:10:03.461Z,7.43
2023-01-05T02:12:41.105Z,4.80
2023-01-05T02:15:23.550Z,5.90
2023-01-05T02:18:06.833Z,5.55
2023-01-05T02:20:46.749Z,5.18
2023-01-05T02:23:36.949Z,5.38
2023-01-05T02:26:22.700Z,5.40
2023-01-05T02:29:13.053Z,5.78
2023-01-05T02:31:47.324Z,4.60
2023-01-05T02:34:22.819Z,6.07
2023-01-05T02:36:55.721Z,5.72
2023-01-05T02:39:30.056Z,6.13
2023-01-05T02:42:02.282Z,4.43
2023-01-05T02:44:31.897Z,6.68
2023-01-05T02:47:03.313Z,4.43
2023-01-05T02:49:34.356Z,8.05
2023-01-05T02:52:05.705Z,4.80
2023-01-05T02:54:39.353Z,5.38
2023-01-05T02:57:13.455Z,5.43
2023-01-05T02:59:44.632Z,6.13
2023-01-05T03:02:19.587Z,5.63
2023-01-05T03:04:53.008Z,5.68
2023-01-05T03:07:27.174Z,6.40
2023-01-05T03:09:55.417Z,5.07
2023-01-05T03:12:46.175Z,5.45
2023-01-05T03:15:21.047Z,5.38
2023-01-05T03:17:53.668Z,6.18
2023-01-05T03:20:24.138Z,4.40
2023-01-05T03:23:11.565Z,6.68
2023-01-05T03:25:59.204Z,5.57
2023-01-05T03:28:48.974Z,4.97
2023-01-05T03:31:41.736Z,6.28
2023-01-05T03:34:35.958Z,6.07
2023-01-05T03:37:08.713Z,5.55
2023-01-05T03:39:39.255Z,5.60
2023-01-05T03:42:09.659Z,6.18
2023-01-05T03:44:39.045Z,5.50
2023-01-05T03:47:07.229Z,3.90
2023-01-05T03:49:37.123Z,5.20
2023-01-05T03:52:05.493Z,5.43
2023-01-05T03:54:33.293Z,5.35
2023-01-05T03:57:01.223Z,4.95
2023-01-05T03:59:29.372Z,5.55
2023-01-05T04:01:57.229Z,5.65
2023-01-05T04:04:25.009Z,5.32
2023-01-05T04:06:54.335Z,5.70
2023-01-05T04:09:22.162Z,6.05
2023-01-05T04:11:49.928Z,6.30
2023-01-05T04:14:17.703Z,7.10
2023-01-05T04:16:45.547Z,5.18
2023-01-05T04:19:13.533Z,6.20
2023-01-05T04:21:41.303Z,6.00
2023-01-05T04:24:12.288Z,5.88
2023-01-05T04:26:41.860Z,5.15
2023-01-05T04:29:10.892Z,3.83
2023-01-05T04:31:38.899Z,5.93
2023-01-05T04:34:06.688Z,5.68
2023-01-05T04:36:34.444Z,6.65
2023-01-05T04:39:02.214Z,5.13
2023-01-05T04:41:31.520Z,4.95
2023-01-05T04:43:59.305Z,5.78
2023-01-05T04:46:27.086Z,7.03
2023-01-05T04:48:54.968Z,6.80
2023-01-05T04:51:22.762Z,5.35
2023-01-05T04:53:50.713Z,6.57
2023-01-05T04:56:18.497Z,5.28
2023-01-05T04:58:47.667Z,6.22
2023-01-05T05:01:15.783Z,5.55
2023-01-05T05:03:43.685Z,6.28
2023-01-05T05:06:11.598Z,5.53
2023-01-05T05:08:39.462Z,5.22
2023-01-05T05:11:07.219Z,5.15
2023-01-05T05:13:35.013Z,5.47
2023-01-05T05:16:04.334Z,4.88
2023-01-05T05:18:32.235Z,6.70
2023-01-05T05:21:00.261Z,5.68
2023-01-05T05:23:28.029Z,6.10
2023-01-05T05:25:55.863Z,6.18
2023-01-05T05:28:28.094Z,5.63
2023-01-05T05:30:57.047Z,7.22
2023-01-05T05:33:26.868Z,5.07
2023-01-05T05:35:54.722Z,6.22
2023-01-05T05:38:22.557Z,4.93
2023-01-05T05:40:50.456Z,5.72
2023-01-05T05:43:18.425Z,6.28
2023-01-05T05:45:50.260Z,5.47
2023-01-05T05:48:18.911Z,5.60
2023-01-05T05:50:48.439Z,6.05
2023-01-05T05:53:16.222Z,6.93
2023-01-05T05:55:44.067Z,5.13
2023-01-05T05:58:11.852Z,6.53
2023-01-05T06:00:39.636Z,6.13
2023-01-05T06:03:07.607Z,5.55
2023-01-05T06:05:35.689Z,6.47
2023-01-05T06:08:05.210Z,8.55
2023-01-05T06:10:33.119Z,5.55
2023-01-05T06:13:01.124Z,4.53
2023-01-05T06:15:28.994Z,6.47
2023-01-05T06:17:56.833Z,6.22
2023-01-05T06:20:24.581Z,5.68
2023-01-05T06:22:52.645Z,5.10
2023-01-05T06:25:21.872Z,5.70
2023-01-05T06:27:49.830Z,6.75
2023-01-05T06:30:17.795Z,7.13
2023-01-05T06:32:45.681Z,5.57
2023-01-05T06:35:13.414Z,5.80
2023-01-05T06:37:41.369Z,6.20
2023-01-05T06:40:11.473Z,7.28
2023-01-05T06:42:41.118Z,5.70
2023-01-05T06:45:11.275Z,5.93
2023-01-05T06:47:39.137Z,5.35
2023-01-05T06:50:08.554Z,8.68
2023-01-05T06:52:39.875Z,5.72
2023-01-05T06:55:09.378Z,7.18
2023-01-05T06:57:37.638Z,6.70
2023-01-05T07:00:09.898Z,7.22
2023-01-05T07:02:37.775Z,6.43
2023-01-05T07:05:06.026Z,7.18
2023-01-05T07:07:33.820Z,5.30
2023-01-05T07:10:01.920Z,6.30
2023-01-05T07:12:29.803Z,7.05
2023-01-05T07:14:58.059Z,6.82
2023-01-05T07:17:28.437Z,6.22
2023-01-05T07:19:56.209Z,6.60
2023-01-05T07:22:24.064Z,5.85
2023-01-05T07:24:51.863Z,6.03
2023-01-05T07:27:19.625Z,5.75
2023-01-05T07:29:47.438Z,5.93
2023-01-05T07:32:15.258Z,5.95
2023-01-05T07:34:51.322Z,6.97
2023-01-05T07:37:23.274Z,7.05
2023-01-05T07:39:51.101Z,6.82
2023-01-05T07:42:18.850Z,9.82
2023-01-05T07:44:46.653Z,6.50
2023-01-05T07:47:14.487Z,6.22
2023-01-05T07:49:42.418Z,6.60
2023-01-05T07:52:11.639Z,5.53
2023-01-05T07:54:39.374Z,5.72
2023-01-05T07:57:07.368Z,7.60
2023-01-05T07:59:35.194Z,6.88
2023-01-05T08:02:03.221Z,7.13
2023-01-05T08:04:31.525Z,5.35
2023-01-05T08:06:59.503Z,6.45
2023-01-05T08:09:46.880Z,7.15
2023-01-05T08:12:14.605Z,6.05
2023-01-05T08:14:42.538Z,8.18
2023-01-05T08:17:10.357Z,6.55
2023-01-05T08:19:38.175Z,6.43
2023-01-05T08:22:06.079Z,6.97
2023-01-05T08:24:35.390Z,6.38
2023-01-05T08:27:03.195Z,6.70
2023-01-05T08:29:31.139Z,8.15
2023-01-05T08:31:59.021Z,7.28
2023-01-05T08:34:32.876Z,6.22
2023-01-05T08:37:02.577Z,8.45
2023-01-05T08:39:30.443Z,5.57
2023-01-05T08:42:02.782Z,8.10
2023-01-05T08:44:30.805Z,7.13
2023-01-05T08:46:58.643Z,6.93
2023-01-05T08:49:26.430Z,6.72
2023-01-05T08:51:54.293Z,8.43
2023-01-05T08:54:22.127Z,7.68
2023-01-05T08:56:50.773Z,6.95
2023-01-05T08:59:20.183Z,6.22
2023-01-05T09:01:48.162Z,7.53
2023-01-05T09:04:16.188Z,7.35
2023-01-05T09:06:44.221Z,5.68
2023-01-05T09:09:12.015Z,7.20
2023-01-05T09:11:44.253Z,7.03
2023-01-05T09:14:14.420Z,6.40
2023-01-05T09:19:32.216Z,7.35
2023-01-05T09:22:00.119Z,8.85
2023-01-05T09:24:27.883Z,6.50
2023-01-05T09:26:56.147Z,6.72
2023-01-05T09:29:24.012Z,5.93
2023-01-05T09:31:53.185Z,5.30
2023-01-05T09:34:21.217Z,5.68
2023-01-05T09:36:49.217Z,7.63
2023-01-05T09:39:17.136Z,7.13
2023-01-05T09:41:47.422Z,6.85
2023-01-05T09:44:23.609Z,7.75
2023-01-05T09:46:55.441Z,7.38
2023-01-05T09:49:26.073Z,5.80
2023-01-05T09:52:00.442Z,7.55
2023-01-05T09:54:30.914Z,8.45
2023-01-05T09:57:09.544Z,8.40
2023-01-05T09:59:39.921Z,8.00
2023-01-05T10:02:29.561Z,7.20
2023-01-05T10:04:59.327Z,7.28
2023-01-05T10:07:37.233Z,7.18
2023-01-05T10:10:12.546Z,6.95
2023-01-05T10:13:02.862Z,7.35
2023-01-05T10:15:35.701Z,6.65
2023-01-05T10:18:12.213Z,6.82
2023-01-05T10:20:51.319Z,8.07
2023-01-05T10:23:32.577Z,7.40
2023-01-05T10:26:07.971Z,6.63
2023-01-05T10:28:43.284Z,6.93
2023-01-05T10:31:23.329Z,6.30
2023-01-05T10:34:00.230Z,6.57
2023-01-05T10:39:56.541Z,8.40
2023-01-05T10:42:37.719Z,6.43
2023-01-05T10:45:10.648Z,6.13
2023-01-05T10:47:40.620Z,6.20
2023-01-05T10:50:35.659Z,7.10
2023-01-05T10:53:10.774Z,6.70
2023-01-05T10:55:45.961Z,8.77
2023-01-05T10:58:24.984Z,6.80
2023-01-05T11:00:55.416Z,8.57
2023-01-05T11:03:57.262Z,7.80
2023-01-05T11:06:24.472Z,7.50
2023-01-05T11:08:52.780Z,7.90
2023-01-05T11:11:23.576Z,8.30
2023-01-05T11:13:53.941Z,6.97
2023-01-05T11:16:24.143Z,7.80
2023-01-05T11:18:54.931Z,7.03
2023-01-05T11:21:25.463Z,8.02
2023-01-05T11:23:55.532Z,7.95
2023-01-05T11:26:32.837Z,9.00
2023-01-05T11:29:03.713Z,8.88
2023-01-05T11:31:37.681Z,8.38
2023-01-05T11:34:10.264Z,8.00
2023-01-05T11:36:40.873Z,7.78
2023-01-05T11:39:20.791Z,7.05
2023-01-05T11:41:48.851Z,8.65
2023-01-05T11:44:22.955Z,7.85
2023-01-05T11:46:51.828Z,7.47
2023-01-05T11:49:20.638Z,7.15
2023-01-05T11:51:49.892Z,8.27
2023-01-05T11:54:33.678Z,7.53
2023-01-05T11:57:17.765Z,9.88
2023-01-05T11:59:46.940Z,7.70
2023-01-05T12:02:43.059Z,6.75
2023-01-05T12:05:25.963Z,6.38
2023-01-05T12:07:59.613Z,8.15
2023-01-05T12:11:01.155Z,7.30
2023-01-05T12:13:46.843Z,7.85
2023-01-05T12:16:26.482Z,7.45
2023-01-05T12:19:40.096Z,9.52
2023-01-05T12:22:49.079Z,6.45
2023-01-05T12:25:33.605Z,8.48
2023-01-05T12:28:35.488Z,6.10
2023-01-05T12:34:28.563Z,6.60
2023-01-05T12:37:15.778Z,7.07
2023-01-05T12:40:04.903Z,8.02
2023-01-05T12:42:55.018Z,5.90
2023-01-05T12:45:38.024Z,6.35
2023-01-05T12:48:08.479Z,7.70
2023-01-05T12:50:43.110Z,7.93
2023-01-05T12:53:20.006Z,7.63
2023-01-05T12:55:51.246Z,6.75
2023-01-05T12:58:27.464Z,7.60
2023-01-05T13:00:57.852Z,7.88
2023-01-05T13:03:31.637Z,6.32
2023-01-05T13:06:06.273Z,6.85
2023-01-05T13:08:39.505Z,9.05
2023-01-05T13:11:15.737Z,9.27
2023-01-05T13:13:48.949Z,6.35
2023-01-05T13:16:20.340Z,6.75
2023-01-05T13:18:53.122Z,9.15
2023-01-05T13:21:22.914Z,6.47
2023-01-05T13:23:55.033Z,7.07
2023-01-05T13:26:23.632Z,6.93
2023-01-05T13:28:55.675Z,7.20
2023-01-05T13:31:58.775Z,7.45
2023-01-05T13:35:02.900Z,7.15
2023-01-05T13:37:54.963Z,6.95
2023-01-05T13:40:54.011Z,8.85
2023-01-05T13:44:00.272Z,7.35
2023-01-05T13:46:44.558Z,7.05
2023-01-05T13:49:29.201Z,9.10
2023-01-05T13:51:58.899Z,7.00
2023-01-05T13:54:49.321Z,7.75
2023-01-05T13:57:24.743Z,8.82
2023-01-05T14:00:05.390Z,7.28
2023-01-05T14:02:39.505Z,8.07
2023-01-05T14:05:16.282Z,6.68
2023-01-05T14:10:22.527Z,7.45
2023-01-05T14:12:54.164Z,6.05
2023-01-05T14:15:38.623Z,5.97
2023-01-05T14:18:09.037Z,9.63
2023-01-05T14:20:44.303Z,6.15
2023-01-05T14:23:55.853Z,6.50
2023-01-05T14:27:05.365Z,5.70
2023-01-05T14:30:09.980Z,6.10
2023-01-05T14:32:40.156Z,6.85
2023-01-05T14:35:29.328Z,6.72
2023-01-05T14:38:00.395Z,6.07
2023-01-05T14:40:46.791Z,7.35
2023-01-05T14:43:29.346Z,6.33
2023-01-05T14:46:06.423Z,7.03
2023-01-05T14:48:37.690Z,6.97
2023-01-05T14:51:18.516Z,6.65
2023-01-05T14:53:48.761Z,6.68
2023-01-05T14:56:20.738Z,7.05
2023-01-05T14:58:57.243Z,7.25
2023-01-05T15:01:30.503Z,7.45
2023-01-05T15:04:04.962Z,7.78
2023-01-05T15:06:48.149Z,7.10
2023-01-05T15:09:34.211Z,6.25
2023-01-05T15:12:26.277Z,7.25
2023-01-05T15:15:13.166Z,7.38
2023-01-05T15:17:55.842Z,6.97
2023-01-05T15:20:54.181Z,6.45
2023-01-05T15:23:58.367Z,6.47
2023-01-05T15:26:43.697Z,6.88
2023-01-05T15:29:46.429Z,6.53
2023-01-05T15:32:21.220Z,5.97
2023-01-05T15:34:55.619Z,5.28
2023-01-05T15:37:27.021Z,7.22
2023-01-05T15:39:56.536Z,6.40
2023-01-05T15:42:38.762Z,7.03
2023-01-05T15:45:09.142Z,6.45
2023-01-05T15:47:39.439Z,6.30
2023-01-05T15:50:17.331Z,6.05
2023-01-05T15:52:53.776Z,6.00
2023-01-05T15:55:21.782Z,5.63
2023-01-05T15:57:55.623Z,7.35
2023-01-05T16:00:26.268Z,5.50
2023-01-05T16:02:54.091Z,5.85
2023-01-05T16:05:23.621Z,5.85
2023-01-05T16:07:56.224Z,5.65
2023-01-05T16:10:28.780Z,5.03
2023-01-05T16:13:04.048Z,6.65
2023-01-05T16:15:35.263Z,6.10
2023-01-05T16:18:05.898Z,6.57
2023-01-05T16:20:35.821Z,5.82
2023-01-05T16:23:11.584Z,7.00
2023-01-05T16:25:42.875Z,5.60
2023-01-05T16:28:17.491Z,5.53
2023-01-05T16:30:47.203Z,5.53
2023-01-05T16:33:28.399Z,5.53
2023-01-05T16:36:13.161Z,6.13
2023-01-05T16:38:42.034Z,4.90
2023-01-05T16:41:16.650Z,5.47
2023-01-05T16:43:51.743Z,5.43
2023-01-05T16:46:39.027Z,5.68
2023-01-05T16:51:53.594Z,6.97
2023-01-05T16:54:34.992Z,4.78
2023-01-05T16:57:05.431Z,5.57
2023-01-05T16:59:46.893Z,6.65
2023-01-05T17:02:40.782Z,5.50
2023-01-05T17:05:08.742Z,5.90
2023-01-05T17:07:39.408Z,5.30
2023-01-05T17:10:08.957Z,5.07
2023-01-05T17:12:36.812Z,5.03
2023-01-05T17:15:08.305Z,5.57
2023-01-05T17:17:36.199Z,5.03
2023-01-05T17:20:04.261Z,5.60
2023-01-05T17:22:31.995Z,6.53
2023-01-05T17:27:28.651Z,4.30
2023-01-05T17:32:30.675Z,5.03
2023-01-05T17:34:58.487Z,5.15
2023-01-05T17:37:26.327Z,4.57
2023-01-05T17:39:54.134Z,5.38
2023-01-05T17:42:39.346Z,4.38
2023-01-05T17:45:08.248Z,4.13
2023-01-05T17:47:37.376Z,3.85
2023-01-05T17:50:06.204Z,5.00
2023-01-05T17:52:34.161Z,4.60
2023-01-05T17:55:02.178Z,4.07
2023-01-05T17:57:30.051Z,4.43
2023-01-05T17:59:57.972Z,4.75
2023-01-05T18:02:25.838Z,5.28
2023-01-05T18:04:56.559Z,5.30
2023-01-05T18:07:24.635Z,5.72
2023-01-05T18:09:52.647Z,5.38
2023-01-05T18:12:20.425Z,5.30
2023-01-05T18:14:48.229Z,5.13
2023-01-05T18:17:16.358Z,4.55
2023-01-05T18:19:44.215Z,4.70
2023-01-05T18:22:13.621Z,5.00
2023-01-05T18:24:42.063Z,4.70
2023-01-05T18:27:11.048Z,5.25
2023-01-05T18:29:39.919Z,5.28
2023-01-05T18:32:09.022Z,5.22
2023-01-05T18:34:37.114Z,4.55
2023-01-05T18:37:06.327Z,4.75
2023-01-05T18:39:39.756Z,4.00
2023-01-05T18:42:07.596Z,5.75
2023-01-05T18:44:35.332Z,5.35
2023-01-05T18:47:03.163Z,4.20
2023-01-05T18:49:31.009Z,4.00
2023-01-05T18:51:58.839Z,3.75
2023-01-05T18:54:26.918Z,3.60
2023-01-05T18:56:56.074Z,2.95
2023-01-05T18:59:24.084Z,2.50
2023-01-05T19:01:52.013Z,2.80
2023-01-05T19:04:20.187Z,2.65
2023-01-05T19:06:48.142Z,2.00
2023-01-05T19:09:16.171Z,2.20
2023-01-05T19:11:46.596Z,2.47
2023-01-05T19:14:17.953Z,1.95
2023-01-05T19:16:47.243Z,2.30
2023-01-05T19:19:15.777Z,1.70
2023-01-05T19:21:46.113Z,1.35
2023-01-05T19:24:16.828Z,1.77
2023-01-05T19:26:45.761Z,1.52
2023-01-05T19:29:15.665Z,1.55
2023-01-05T19:31:44.061Z,1.88
2023-01-05T19:34:14.981Z,1.77
2023-01-05T19:36:42.979Z,1.88
2023-01-05T19:39:13.732Z,1.65
2023-01-05T19:41:45.038Z,1.40
2023-01-05T19:44:17.429Z,2.00
2023-01-05T19:46:46.111Z,1.27
2023-01-05T19:49:16.893Z,1.40
2023-01-05T19:51:45.354Z,1.45
2023-01-05T19:54:14.583Z,1.58
2023-01-05T19:56:43.907Z,1.30
2023-01-05T19:59:17.844Z,1.40
2023-01-05T20:01:46.395Z,1.35
2023-01-05T20:04:14.357Z,2.25
2023-01-05T20:06:44.237Z,1.25
2023-01-05T20:09:14.281Z,1.38
2023-01-05T20:11:44.424Z,1.50
2023-01-05T20:14:14.477Z,1.45
2023-01-05T20:16:45.742Z,1.33
2023-01-05T20:19:14.469Z,1.77
2023-01-05T20:21:42.530Z,1.35
2023-01-05T20:24:14.606Z,1.17
2023-01-05T20:26:43.127Z,1.33
2023-01-05T20:29:11.072Z,1.23
2023-01-05T20:31:41.399Z,1.90
2023-01-05T20:34:15.197Z,2.10
2023-01-05T20:36:43.567Z,1.20
2023-01-05T20:39:13.900Z,1.90
2023-01-05T20:41:44.343Z,1.13
2023-01-05T20:44:14.083Z,1.52
2023-01-05T20:46:44.603Z,1.48
2023-01-05T20:49:14.448Z,1.38
2023-01-05T20:51:42.358Z,1.48
2023-01-05T20:54:11.503Z,1.67
2023-01-05T20:56:41.734Z,1.42
2023-01-05T20:59:13.734Z,1.10
2023-01-05T21:01:42.781Z,1.70
2023-01-05T21:04:10.767Z,1.30
2023-01-05T21:06:40.440Z,1.73
2023-01-05T21:09:08.995Z,1.40
2023-01-05T21:11:37.989Z,1.40
2023-01-05T21:14:08.604Z,1.67
2023-01-05T21:16:39.123Z,1.50
2023-01-05T21:19:07.678Z,2.20
2023-01-05T21:21:35.496Z,1.30
2023-01-05T21:24:07.910Z,1.30
2023-01-05T21:26:35.861Z,1.90
2023-01-05T21:29:05.694Z,2.20
2023-01-05T21:31:34.823Z,1.70
2023-01-05T21:34:02.648Z,1.45
2023-01-05T21:36:32.465Z,1.48
2023-01-05T21:39:03.975Z,2.08
2023-01-05T21:41:51.808Z,1.55
2023-01-05T21:44:20.375Z,1.67
2023-01-05T21:46:49.563Z,1.80
2023-01-05T21:49:18.152Z,1.75
2023-01-05T21:52:03.982Z,1.92
2023-01-05T21:54:49.460Z,1.88
2023-01-05T21:57:18.680Z,1.83
2023-01-05T21:59:46.699Z,1.70
2023-01-05T22:02:15.697Z,2.10
2023-01-05T22:04:43.976Z,2.15
2023-01-05T22:07:12.195Z,2.25
2023-01-05T22:09:40.449Z,1.90
2023-01-05T22:12:09.235Z,1.60
2023-01-05T22:14:38.761Z,1.83
2023-01-05T22:17:08.202Z,1.77
2023-01-05T22:19:36.060Z,1.70
2023-01-05T22:22:03.958Z,1.92
2023-01-05T22:24:31.750Z,1.77
2023-01-05T22:26:59.790Z,1.50
2023-01-05T22:29:27.738Z,2.17
2023-01-05T22:31:58.780Z,1.67
2023-01-05T22:34:27.913Z,1.42
2023-01-05T22:36:55.654Z,1.63
2023-01-05T22:39:23.544Z,1.80
2023-01-05T22:41:51.766Z,2.17
2023-01-05T22:44:19.631Z,2.58
2023-01-05T22:46:47.451Z,1.65
2023-01-05T22:49:16.758Z,1.95
2023-01-05T22:51:46.338Z,2.25
2023-01-05T22:54:14.164Z,1.80
2023-01-05T22:56:42.535Z,1.90
2023-01-05T22:59:10.315Z,1.98
2023-01-05T23:01:39.728Z,2.35
2023-01-05T23:04:08.413Z,2.72
2023-01-05T23:06:37.599Z,1.83
2023-01-05T23:09:07.718Z,2.78
2023-01-05T23:11:37.880Z,2.00
2023-01-05T23:14:08.003Z,2.40
2023-01-05T23:16:36.654Z,3.20
2023-01-05T23:19:05.491Z,2.30
2023-01-05T23:21:33.802Z,2.45
2023-01-05T23:24:02.998Z,2.05
2023-01-05T23:26:31.154Z,2.53
2023-01-05T23:28:59.362Z,2.80
2023-01-05T23:31:27.444Z,3.22
2023-01-05T23:33:55.850Z,2.25
2023-01-05T23:36:24.716Z,2.20
2023-01-05T23:38:52.752Z,2.47
2023-01-05T23:41:22.281Z,2.05
2023-01-05T23:43:50.146Z,2.30
2023-01-05T23:46:20.187Z,2.70
2023-01-05T23:48:49.184Z,2.55
2023-01-05T23:51:17.653Z,2.38
2023-01-05T23:53:48.350Z,2.55
2023-01-05T23:56:18.501Z,2.20
2023-01-05T23:58:48.075Z,2.88
